首页
METAR-TAF:

METAR-TAF

机场 :

Northwest Florida Regional Airport / Eglin Air Force Base

瓦尔帕莱索, 佛罗里达州, 美国

纬度: 30-29N, 经度: 086-31W, 海拔: 26米

当前天气观测

该预报发布于23分钟前的14:59 UTC
风速3节,风向
温度 10°C
湿度 66%
气压 1021 hPa
能見度: 16.1公里
少量云层高于7000英尺
阴天层高于8500英尺

METAR: KVPS 261459Z AUTO 08003KT 10SM FEW070 OVC085 10/04 A3016 RMK AO2 RAE59 SLP220 $

时间: 09:22 (15:22 UTC)

预报

该预报发布于5小时和22分钟前的10:00 UTC
预报有效从26日的 10点(UTC)到 27日的 16点(UTC)
风速7节,风向西北
能见度10公里或以上
多云层高于11000英尺
多云层高于20000英尺
成为
从 26日的 13点(UTC)到 26日的 14点(UTC)
风速9节,风向东北
能见度10公里或以上
散云层高于6000英尺
多云层高于15000英尺
多云层高于20000英尺
成为
从 26日的 18点(UTC)到 26日的 19点(UTC)
风速10节,风向东南
能见度10公里或以上
多云层高于7000英尺
阴天层高于15000英尺
附近有阵雨
成为
从 26日的 20点(UTC)到 26日的 21点(UTC)
风速10节,风向南转南东
能见度10公里或以上
少量云层高于1800英尺
多云层高于5000英尺
阴天层高于7000英尺
小阵雨
成为
从 27日的 02点(UTC)到 27日的 03点(UTC)
风速9节,风向东转东南
能見度: 9000
多云层高于400英尺
多云层高于1000英尺
阴天层高于2500英尺
小阵雨
成为
从 27日的 14点(UTC)到 27日的 15点(UTC)
风速6节,风向北转东北
能见度10公里或以上
多云层高于800英尺
多云层高于2500英尺
附近有阵雨

TAF: KVPS 261000Z 2610/2716 31007KT 9999 BKN110 BKN200 QNH3010INS BECMG 2613/2614 04009KT 9999 SCT060 BKN150 BKN200 QNH3013INS BECMG 2618/2619 13010KT 9999 VCSH BKN070 OVC150 QNH3013INS BECMG 2620/2621 15010KT 9999 -SHRA FEW018 BKN050 OVC070 QNH3006INS BECMG 2702/2703 12009KT 9000 -SHRA BKN004 BKN010 OVC025 QNH3012INS BECMG 2714/2715 02006KT 9999 VCSH BKN008 BKN025 QNH3004INS TX15/2620Z TN03/2612Z

超过4000个机场的气象观测和天气预报(METAR&TAF报告)。

可查询的气象台以黄色和红色小点在地图上表示。

将鼠标移到小点上方,可查看气象台名称。

然后点击查看天气观测和预报。

如需切换地图:点击带黑十字的绿色按钮放大地图;点击带横线的绿色按钮缩小地图;或者点击绿色箭头查看邻近地区的地图。


METAR-TAF: